Time;durP1;ratioP1;P1;durP2;ratioP2;P2;SDS_P1;SDS_P2;PMS_P1;PMS_P2;Temp;Humidity;BMP_temperature;BMP_pressure;BME280_temperature;BME280_humidity;BME280_pressure;Samples;Min_cycle;Max_cycle;Signal;HPM_P1;HPM_P2
2021/06/04 00:01:26;;;;;;;29.02;23.02;;;;;;;20.35;78.50;102011.56;5059944;28;20052;-74
2021/06/04 00:03:53;;;;;;;26.90;22.63;;;;;;;20.31;78.59;102010.28;5047267;28;20048;-74
2021/06/04 00:06:21;;;;;;;26.33;22.40;;;;;;;20.30;78.44;102013.94;5058396;28;20053;-75
2021/06/04 00:08:50;;;;;;;28.60;22.23;;;;;;;20.32;78.08;102011.91;5056044;28;20064;-74
2021/06/04 00:11:30;;;;;;;28.10;22.33;;;;;;;20.30;77.87;102010.44;5061824;28;20447;-74
2021/06/04 00:14:02;;;;;;;32.10;23.17;;;;;;;20.27;77.52;102019.66;5057867;28;20055;-74
2021/06/04 00:16:35;;;;;;;31.38;22.75;;;;;;;20.24;77.49;102019.19;5056447;28;20060;-74
2021/06/04 00:19:09;;;;;;;31.20;23.70;;;;;;;20.21;77.73;102015.06;5055345;28;20044;-74
2021/06/04 00:21:41;;;;;;;31.80;24.75;;;;;;;20.21;76.99;102019.53;5065089;28;20101;-74
2021/06/04 00:24:08;;;;;;;32.90;25.42;;;;;;;20.17;76.66;102013.75;5066607;28;20086;-75
2021/06/04 00:26:38;;;;;;;34.45;26.33;;;;;;;20.17;76.00;102008.44;5057878;28;20048;-75
2021/06/04 00:29:06;;;;;;;36.20;25.33;;;;;;;20.13;76.31;102010.63;5075936;28;20048;-75
2021/06/04 00:31:32;;;;;;;34.17;26.45;;;;;;;20.12;76.42;102005.47;5054046;28;20397;-75
2021/06/04 00:33:59;;;;;;;36.28;27.25;;;;;;;20.04;76.50;102010.88;5059863;28;20324;-74
2021/06/04 00:36:26;;;;;;;36.17;26.20;;;;;;;20.03;76.98;102012.72;5058115;28;20044;-75
2021/06/04 00:38:55;;;;;;;36.60;27.05;;;;;;;20.06;76.55;102019.50;5064846;28;20044;-74
2021/06/04 00:41:38;;;;;;;36.28;27.27;;;;;;;20.07;77.06;102018.50;5059849;28;20086;-74
2021/06/04 00:44:06;;;;;;;36.50;28.98;;;;;;;20.05;76.91;102020.50;5059665;28;20577;-74
2021/06/04 00:46:33;;;;;;;41.13;29.77;;;;;;;20.07;77.03;102016.69;5053455;28;20135;-73
2021/06/04 00:49:00;;;;;;;39.03;28.88;;;;;;;20.02;77.93;102019.03;5062855;28;20060;-73
2021/06/04 00:51:35;;;;;;;37.47;29.42;;;;;;;20.04;77.86;102025.00;5065390;28;20102;-73
2021/06/04 00:54:04;;;;;;;35.88;27.95;;;;;;;20.05;77.54;102025.84;5056347;28;20053;-74
2021/06/04 00:56:31;;;;;;;40.15;30.50;;;;;;;20.03;77.67;102026.03;5058100;28;20347;-74
2021/06/04 00:58:59;;;;;;;37.92;29.40;;;;;;;20.00;77.92;102025.56;5053617;28;20106;-74
2021/06/04 01:01:29;;;;;;;35.03;28.10;;;;;;;20.03;78.38;102023.38;5063077;28;20561;-74
2021/06/04 01:04:00;;;;;;;36.67;28.38;;;;;;;20.00;77.75;102021.06;5054541;28;20050;-74
2021/06/04 01:06:48;;;;;;;37.97;30.05;;;;;;;20.00;77.83;102029.03;5063711;28;20114;-74
2021/06/04 01:09:24;;;;;;;;;;;;;;;19.95;78.39;102021.59;5057934;28;20831;-74
2021/06/04 01:11:57;;;;;;;38.45;28.30;;;;;;;19.93;78.57;102026.28;5057246;28;19970;-74
2021/06/04 01:14:47;;;;;;;40.67;29.52;;;;;;;19.90;78.69;102031.13;5050911;28;20504;-74
2021/06/04 01:17:26;;;;;;;39.20;29.50;;;;;;;19.86;78.43;102027.19;5060884;28;20454;-74
2021/06/04 01:20:12;;;;;;;38.83;29.67;;;;;;;19.83;78.56;102031.00;5054039;28;20059;-74
2021/06/04 01:22:51;;;;;;;42.83;30.33;;;;;;;19.83;78.54;102023.00;5060579;28;20057;-73
2021/06/04 01:25:40;;;;;;;40.53;31.15;;;;;;;19.84;79.09;102024.69;5056458;28;20147;-73
2021/06/04 01:28:20;;;;;;;37.30;29.73;;;;;;;19.83;78.58;102023.00;5060679;28;20561;-74
2021/06/04 01:30:59;;;;;;;43.40;31.38;;;;;;;19.80;78.63;102019.88;5059297;28;20048;-74
2021/06/04 01:33:31;;;;;;;42.50;31.17;;;;;;;19.81;78.14;102021.53;5060660;28;20053;-74
2021/06/04 01:36:01;;;;;;;45.72;33.08;;;;;;;19.78;78.34;102028.06;5062472;28;20092;-75
2021/06/04 01:38:31;;;;;;;50.03;34.78;;;;;;;19.74;78.05;102022.25;5049377;28;20106;-74
2021/06/04 01:41:03;;;;;;;50.08;35.53;;;;;;;19.71;77.46;102027.06;5056840;28;20139;-74
2021/06/04 01:43:52;;;;;;;48.63;33.65;;;;;;;19.73;77.70;102025.09;5057921;28;20098;-74
2021/06/04 01:46:28;;;;;;;46.35;33.80;;;;;;;19.66;78.12;102026.78;5064006;28;20056;-74
2021/06/04 01:49:00;;;;;;;51.78;35.72;;;;;;;19.65;78.01;102022.47;5058622;28;20079;-74
2021/06/04 01:51:34;;;;;;;49.50;36.97;;;;;;;19.58;77.75;102025.00;5063375;28;20048;-74
2021/06/04 01:54:06;;;;;;;51.00;36.05;;;;;;;19.59;77.16;102024.00;5048472;28;20056;-74
2021/06/04 01:56:48;;;;;;;45.28;33.80;;;;;;;19.56;77.27;102014.53;5059396;28;20060;-74
2021/06/04 01:59:25;;;;;;;54.60;37.92;;;;;;;19.46;78.02;102005.94;5057061;28;20097;-74
2021/06/04 02:01:53;;;;;;;46.67;34.33;;;;;;;19.46;77.74;102010.44;5062478;28;20064;-74
2021/06/04 02:04:25;;;;;;;49.90;37.03;;;;;;;19.41;77.95;102016.31;5052657;28;20060;-74
2021/06/04 02:06:53;;;;;;;48.03;35.28;;;;;;;19.34;78.12;102010.84;5056176;28;20098;-74
2021/06/04 02:09:22;;;;;;;50.42;35.85;;;;;;;19.35;78.24;102007.19;5048280;28;20057;-74
2021/06/04 02:11:49;;;;;;;48.50;35.30;;;;;;;19.29;78.42;102012.41;5057446;28;20071;-73
2021/06/04 02:14:24;;;;;;;51.63;34.92;;;;;;;19.21;78.52;102007.94;5062117;28;20051;-74
2021/06/04 02:17:02;;;;;;;53.17;36.38;;;;;;;19.16;78.59;102008.44;5056301;28;20067;-74
2021/06/04 02:19:35;;;;;;;;;;;;;;;19.10;78.90;102011.00;5061982;28;20052;-72
2021/06/04 02:22:17;;;;;;;44.75;33.72;;;;;;;19.10;78.99;102014.47;5048722;28;19924;-73
2021/06/04 02:25:00;;;;;;;46.58;34.60;;;;;;;19.03;79.18;102015.34;5057796;28;20110;-73
2021/06/04 02:27:32;;;;;;;47.50;33.97;;;;;;;18.99;79.18;102016.69;5069528;28;20057;-73
2021/06/04 02:30:02;;;;;;;47.38;35.60;;;;;;;18.91;79.20;102015.69;5063299;28;20483;-73
2021/06/04 02:32:51;;;;;;;49.92;34.58;;;;;;;18.89;79.15;102020.38;5057470;28;20057;-73
2021/06/04 02:35:26;;;;;;;49.97;36.63;;;;;;;18.87;79.21;102011.75;5059604;28;20114;-72
2021/06/04 02:37:59;;;;;;;59.35;40.15;;;;;;;18.86;78.98;102015.41;5050231;28;20045;-73
2021/06/04 02:40:34;;;;;;;64.60;40.60;;;;;;;18.82;79.20;102019.41;5057201;28;20141;-73
2021/06/04 02:43:07;;;;;;;60.22;39.88;;;;;;;-145.50;100.00;65435.88;5050027;28;20543;-73
2021/06/04 02:45:57;;;;;;;62.95;41.90;;;;;;;-145.50;100.00;65435.88;5059615;28;20056;-73
2021/06/04 02:49:23;;;;;;;57.38;37.45;;;;;;;-145.50;100.00;65435.88;5051587;28;20056;-74
2021/06/04 02:52:49;;;;;;;56.53;38.08;;;;;;;-145.50;100.00;65435.88;5056171;28;20056;-73
2021/06/04 02:55:51;;;;;;;53.47;36.92;;;;;;;-145.50;100.00;65435.88;5052630;28;20442;-73
2021/06/04 02:58:40;;;;;;;56.30;37.65;;;;;;;-145.50;100.00;65435.88;5058858;28;20052;-73
2021/06/04 03:01:32;;;;;;;53.92;37.08;;;;;;;-145.50;100.00;65435.88;5055911;28;20102;-73
2021/06/04 03:04:21;;;;;;;54.65;38.42;;;;;;;-145.50;100.00;65435.88;5055521;28;20106;-73
2021/06/04 03:07:14;;;;;;;55.92;36.35;;;;;;;-145.50;100.00;65435.88;5053701;28;20090;-73
2021/06/04 03:10:07;;;;;;;53.38;37.30;;;;;;;-145.50;100.00;65435.88;5061351;28;20495;-73
2021/06/04 03:12:58;;;;;;;49.90;35.90;;;;;;;-145.50;100.00;65435.88;5057010;28;20048;-73
2021/06/04 03:15:53;;;;;;;57.00;37.72;;;;;;;-145.50;100.00;65435.88;5054592;28;20138;-73
2021/06/04 03:18:45;;;;;;;58.65;37.00;;;;;;;-145.50;100.00;65435.88;5056236;28;20087;-73
2021/06/04 03:21:46;;;;;;;56.30;38.22;;;;;;;-145.50;100.00;65435.88;5065038;28;20525;-73
2021/06/04 03:24:36;;;;;;;56.10;36.15;;;;;;;-145.50;100.00;65435.88;5063217;28;20514;-73
2021/06/04 03:27:26;;;;;;;56.53;38.28;;;;;;;-145.50;100.00;65435.88;5062141;28;20063;-73
2021/06/04 03:30:14;;;;;;;54.05;37.30;;;;;;;-145.50;100.00;65435.88;5059109;28;20479;-73
2021/06/04 03:33:02;;;;;;;55.95;35.92;;;;;;;-145.50;100.00;65435.88;5062183;28;20053;-73
2021/06/04 03:35:51;;;;;;;53.45;37.30;;;;;;;-145.50;100.00;65435.88;5062102;28;20547;-74
2021/06/04 03:38:39;;;;;;;56.65;38.67;;;;;;;-145.50;100.00;65435.88;5067139;28;20101;-73
2021/06/04 03:41:30;;;;;;;57.22;38.33;;;;;;;-145.50;100.00;65435.88;5064516;28;20064;-73
2021/06/04 03:44:20;;;;;;;54.28;37.97;;;;;;;-145.50;100.00;65435.88;5062458;28;20051;-73
2021/06/04 03:47:07;;;;;;;52.80;36.22;;;;;;;-145.50;100.00;65435.88;5057456;28;20056;-73
2021/06/04 03:49:57;;;;;;;55.83;35.40;;;;;;;-145.50;100.00;65435.88;5064648;28;20381;-73
2021/06/04 03:52:44;;;;;;;53.33;37.65;;;;;;;-145.50;100.00;65435.88;5067527;28;20063;-73
2021/06/04 03:55:33;;;;;;;61.28;39.20;;;;;;;-145.50;100.00;65435.88;5057354;28;20117;-73
2021/06/04 03:58:21;;;;;;;58.67;38.40;;;;;;;-145.50;100.00;65435.88;5059219;28;20056;-73
2021/06/04 04:01:16;;;;;;;57.00;38.38;;;;;;;-145.50;100.00;65435.88;5061207;28;20048;-73
2021/06/04 04:04:04;;;;;;;55.72;36.78;;;;;;;-145.50;100.00;65435.88;5062851;28;20430;-72
2021/06/04 04:06:51;;;;;;;;;;;;;;;-145.50;100.00;65435.88;5055754;28;20048;-73
2021/06/04 04:09:39;;;;;;;60.60;38.93;;;;;;;-145.50;100.00;65435.88;5060496;28;20457;-73
2021/06/04 04:12:28;;;;;;;59.88;39.70;;;;;;;-145.50;100.00;65435.88;5051063;28;20072;-73
2021/06/04 04:15:19;;;;;;;63.80;39.72;;;;;;;-145.50;100.00;65435.88;5060374;28;20098;-73
2021/06/04 04:18:07;;;;;;;55.67;35.95;;;;;;;-145.50;100.00;65435.88;5049181;28;20061;-73
2021/06/04 04:21:00;;;;;;;55.97;38.50;;;;;;;-145.50;100.00;65435.88;5064229;28;20052;-74
2021/06/04 04:23:56;;;;;;;50.40;33.70;;;;;;;-145.50;100.00;65435.88;5056980;28;20049;-73
2021/06/04 04:26:48;;;;;;;38.75;28.92;;;;;;;-145.50;100.00;65435.88;5058759;28;20064;-73
2021/06/04 04:29:37;;;;;;;41.83;27.77;;;;;;;-145.50;100.00;65435.88;5049900;28;20499;-73
2021/06/04 04:32:38;;;;;;;35.55;26.35;;;;;;;-145.50;100.00;65435.88;5065265;28;20141;-73
2021/06/04 04:35:29;;;;;;;37.75;26.95;;;;;;;-145.50;100.00;65435.88;5055824;28;20063;-74
2021/06/04 04:38:20;;;;;;;40.75;28.25;;;;;;;-145.50;100.00;65435.88;5063462;28;20052;-73
2021/06/04 04:41:09;;;;;;;43.28;30.60;;;;;;;-145.50;100.00;65435.88;5051275;28;20056;-73
2021/06/04 04:43:58;;;;;;;44.83;32.33;;;;;;;-145.50;100.00;65435.88;5059011;28;20447;-73
2021/06/04 04:46:47;;;;;;;54.10;36.53;;;;;;;-145.50;100.00;65435.88;5062538;28;20139;-72
2021/06/04 04:49:35;;;;;;;55.22;35.67;;;;;;;-145.50;100.00;65435.88;5059641;28;20048;-72
2021/06/04 04:52:24;;;;;;;57.75;34.83;;;;;;;-145.50;100.00;65435.88;5048441;28;20126;-74
2021/06/04 04:55:16;;;;;;;45.92;31.92;;;;;;;-145.50;100.00;65435.88;5055657;28;20052;-73
2021/06/04 04:58:04;;;;;;;46.10;32.63;;;;;;;-145.50;100.00;65435.88;5047688;28;20086;-73
2021/06/04 05:00:51;;;;;;;48.75;33.88;;;;;;;-145.50;100.00;65435.88;5057953;28;20131;-74
2021/06/04 05:03:40;;;;;;;51.80;35.70;;;;;;;-145.50;100.00;65435.88;5056024;28;20049;-73
2021/06/04 05:06:28;;;;;;;55.00;36.58;;;;;;;-145.50;100.00;65435.88;5054029;28;20405;-73
2021/06/04 05:09:15;;;;;;;53.95;35.42;;;;;;;-145.50;100.00;65435.88;5049328;28;20490;-74
2021/06/04 05:12:04;;;;;;;52.47;36.72;;;;;;;-145.50;100.00;65435.88;5062780;28;20113;-73
2021/06/04 05:14:52;;;;;;;60.78;38.50;;;;;;;-145.50;100.00;65435.88;5054198;28;20052;-73
2021/06/04 05:17:40;;;;;;;61.20;38.97;;;;;;;-145.50;100.00;65435.88;5061903;28;20463;-73
2021/06/04 05:20:28;;;;;;;69.25;43.53;;;;;;;-145.50;100.00;65435.88;5068809;28;20049;-73
2021/06/04 05:23:16;;;;;;;62.90;41.05;;;;;;;-145.50;100.00;65435.88;5056872;28;20052;-73
2021/06/04 05:26:08;;;;;;;66.35;42.78;;;;;;;-145.50;100.00;65435.88;5055636;28;20352;-75
2021/06/04 05:28:55;;;;;;;69.63;41.97;;;;;;;-145.50;100.00;65435.88;5065042;28;20056;-75
2021/06/04 05:31:43;;;;;;;66.40;42.60;;;;;;;-145.50;100.00;65435.88;5068028;28;20434;-74
2021/06/04 05:34:31;;;;;;;69.18;44.00;;;;;;;-145.50;100.00;65435.88;5060865;28;20049;-74
2021/06/04 05:37:18;;;;;;;71.07;44.73;;;;;;;-145.50;100.00;65435.88;5050629;28;20570;-75
2021/06/04 05:40:11;;;;;;;67.63;44.28;;;;;;;-145.50;100.00;65435.88;5062180;28;20048;-72
2021/06/04 05:43:00;;;;;;;67.65;44.10;;;;;;;-145.50;100.00;65435.88;5057012;28;20052;-74
2021/06/04 05:45:49;;;;;;;66.82;41.75;;;;;;;-145.50;100.00;65435.88;5063310;28;20140;-73
2021/06/04 05:48:38;;;;;;;56.80;38.50;;;;;;;-145.50;100.00;65435.88;5050769;28;20101;-72
2021/06/04 05:51:28;;;;;;;60.75;36.58;;;;;;;-145.50;100.00;65435.88;5057045;28;20048;-73
2021/06/04 05:54:17;;;;;;;60.58;37.50;;;;;;;-145.50;100.00;65435.88;5054798;28;20118;-73
2021/06/04 05:57:05;;;;;;;55.85;35.45;;;;;;;-145.50;100.00;65435.88;5062255;28;20447;-73
2021/06/04 05:59:53;;;;;;;54.65;36.67;;;;;;;-145.50;100.00;65435.88;5060909;28;20056;-73
2021/06/04 06:02:40;;;;;;;49.17;34.28;;;;;;;-145.50;100.00;65435.88;5056413;28;20057;-73
2021/06/04 06:05:28;;;;;;;48.47;33.55;;;;;;;-145.50;100.00;65435.88;5056946;28;20044;-73
2021/06/04 06:08:15;;;;;;;49.28;33.22;;;;;;;-145.50;100.00;65435.88;5058444;28;20056;-73
2021/06/04 06:11:03;;;;;;;47.33;33.13;;;;;;;-145.50;100.00;65435.88;5057680;28;20052;-73
2021/06/04 06:13:51;;;;;;;49.03;33.83;;;;;;;-145.50;100.00;65435.88;5055809;28;20340;-73
2021/06/04 06:16:39;;;;;;;50.25;33.85;;;;;;;-145.50;100.00;65435.88;5056335;28;20056;-73
2021/06/04 06:19:27;;;;;;;46.60;32.53;;;;;;;-145.50;100.00;65435.88;5059853;28;20052;-73
2021/06/04 06:22:14;;;;;;;53.35;35.42;;;;;;;-145.50;100.00;65435.88;5060749;28;20545;-73
2021/06/04 06:25:05;;;;;;;49.60;32.90;;;;;;;-145.50;100.00;65435.88;5063126;28;20052;-73
2021/06/04 06:27:52;;;;;;;48.60;32.45;;;;;;;-145.50;100.00;65435.88;5063459;28;20125;-73
2021/06/04 06:30:43;;;;;;;51.20;33.60;;;;;;;-145.50;100.00;65435.88;5073986;28;20144;-74
2021/06/04 06:33:31;;;;;;;49.47;33.10;;;;;;;-145.50;100.00;65435.88;5055135;28;20049;-73
2021/06/04 06:36:26;;;;;;;48.38;33.65;;;;;;;-145.50;100.00;65435.88;5055861;28;20412;-73
2021/06/04 06:39:19;;;;;;;57.45;36.88;;;;;;;-145.50;100.00;65435.88;5062006;28;20103;-73
2021/06/04 06:42:07;;;;;;;49.83;32.63;;;;;;;-145.50;100.00;65435.88;5054840;28;20446;-73
2021/06/04 06:44:55;;;;;;;46.72;31.88;;;;;;;-145.50;100.00;65435.88;5056903;28;20455;-74
2021/06/04 06:47:42;;;;;;;48.10;30.67;;;;;;;-145.50;100.00;65435.88;5048709;28;20060;-74
2021/06/04 06:50:30;;;;;;;45.70;31.90;;;;;;;-145.50;100.00;65435.88;5062487;28;20070;-72
2021/06/04 06:53:18;;;;;;;46.65;32.28;;;;;;;-145.50;100.00;65435.88;5051139;28;20059;-75
2021/06/04 06:56:07;;;;;;;46.38;31.55;;;;;;;-145.50;100.00;65435.88;5062304;28;20048;-73
2021/06/04 06:58:55;;;;;;;45.63;31.52;;;;;;;-145.50;100.00;65435.88;5047221;28;20044;-73
2021/06/04 07:01:43;;;;;;;45.95;34.08;;;;;;;-145.50;100.00;65435.88;5056131;28;20051;-73
2021/06/04 07:04:30;;;;;;;44.85;32.03;;;;;;;-145.50;100.00;65435.88;5055967;28;20052;-73
2021/06/04 07:07:18;;;;;;;50.42;33.33;;;;;;;-145.50;100.00;65435.88;5061056;28;20101;-74
2021/06/04 07:10:11;;;;;;;43.78;30.70;;;;;;;-145.50;100.00;65435.88;5052640;28;20479;-74
2021/06/04 07:13:00;;;;;;;40.42;28.40;;;;;;;-145.50;100.00;65435.88;5050109;28;20100;-74
2021/06/04 07:15:48;;;;;;;46.67;29.90;;;;;;;-145.50;100.00;65435.88;5064846;28;21008;-75
2021/06/04 07:18:36;;;;;;;44.67;31.48;;;;;;;-145.50;100.00;65435.88;5061289;28;20303;-75
2021/06/04 07:21:24;;;;;;;42.10;31.02;;;;;;;-145.50;100.00;65435.88;5052820;28;20048;-75
2021/06/04 07:24:15;;;;;;;45.42;30.58;;;;;;;-145.50;100.00;65435.88;5060596;28;20052;-75
2021/06/04 07:27:06;;;;;;;42.17;28.40;;;;;;;-145.50;100.00;65435.88;5046286;28;20052;-74
2021/06/04 07:29:53;;;;;;;39.00;29.60;;;;;;;-145.50;100.00;65435.88;5061237;28;20057;-75
2021/06/04 07:32:41;;;;;;;41.70;30.15;;;;;;;-145.50;100.00;65435.88;5055357;28;20048;-75
2021/06/04 07:35:31;;;;;;;42.28;30.05;;;;;;;-145.50;100.00;65435.88;5064840;28;20191;-75
2021/06/04 07:38:18;;;;;;;43.13;29.60;;;;;;;-145.50;100.00;65435.88;5055427;28;20057;-75
2021/06/04 07:41:06;;;;;;;39.55;27.20;;;;;;;-145.50;100.00;65435.88;5054837;28;20130;-75
2021/06/04 07:43:54;;;;;;;;;;;;;;;-145.50;100.00;65435.88;5053572;28;20499;-76
2021/06/04 07:46:43;;;;;;;38.08;25.60;;;;;;;-145.50;100.00;65435.88;5061034;28;19924;-75
2021/06/04 07:49:30;;;;;;;39.85;27.20;;;;;;;-145.50;100.00;65435.88;5055634;28;20052;-75
2021/06/04 07:52:18;;;;;;;41.03;28.88;;;;;;;-145.50;100.00;65435.88;5060730;28;20048;-75
2021/06/04 07:55:07;;;;;;;37.80;27.40;;;;;;;-145.50;100.00;65435.88;5047377;28;20063;-75
2021/06/04 07:57:55;;;;;;;41.85;28.85;;;;;;;-145.50;100.00;65435.88;5060529;28;20053;-75
2021/06/04 08:00:43;;;;;;;;;;;;;;;-145.50;100.00;65435.88;5055226;28;20073;-74
2021/06/04 08:03:34;;;;;;;43.33;29.00;;;;;;;-145.50;100.00;65435.88;5062631;28;19931;-75
2021/06/04 08:06:23;;;;;;;41.25;28.42;;;;;;;-145.50;100.00;65435.88;5050463;28;20596;-74
2021/06/04 08:09:11;;;;;;;42.15;29.52;;;;;;;-145.50;100.00;65435.88;5062628;28;20495;-75
2021/06/04 08:12:04;;;;;;;40.58;29.52;;;;;;;-145.50;100.00;65435.88;5057965;28;20056;-76
2021/06/04 08:14:51;;;;;;;41.45;29.25;;;;;;;-145.50;100.00;65435.88;5075088;28;20475;-75
2021/06/04 08:17:39;;;;;;;40.35;29.17;;;;;;;-145.50;100.00;65435.88;5067197;28;20048;-74
2021/06/04 08:20:29;;;;;;;40.10;28.45;;;;;;;-145.50;100.00;65435.88;5059515;28;20056;-75
2021/06/04 08:23:29;;;;;;;39.35;27.45;;;;;;;-145.50;100.00;65435.88;5047164;28;20114;-75
2021/06/04 08:26:21;;;;;;;38.33;24.80;;;;;;;-145.50;100.00;65435.88;5059189;28;20048;-75
2021/06/04 08:29:10;;;;;;;38.90;27.77;;;;;;;-145.50;100.00;65435.88;5051416;28;20052;-75
2021/06/04 08:31:59;;;;;;;44.60;25.55;;;;;;;-145.50;100.00;65435.88;5060882;28;20056;-75
2021/06/04 08:34:46;;;;;;;39.85;27.02;;;;;;;-145.50;100.00;65435.88;5049388;28;20430;-75
2021/06/04 08:37:34;;;;;;;38.20;25.63;;;;;;;-145.50;100.00;65435.88;5060880;28;20125;-75
2021/06/04 08:40:27;;;;;;;35.58;25.58;;;;;;;-145.50;100.00;65435.88;5052392;28;20149;-75
2021/06/04 08:44:02;;;;;;;35.35;25.45;;;;;;;-145.50;100.00;65435.88;5062129;28;20064;-75
2021/06/04 08:47:07;;;;;;;36.05;27.30;;;;;;;-145.50;100.00;65435.88;5021345;28;20466;-75
2021/06/04 08:50:38;;;;;;;39.40;27.92;;;;;;;-145.50;100.00;65435.88;5055405;28;20057;-75
2021/06/04 08:53:46;;;;;;;39.10;28.35;;;;;;;-145.50;100.00;65435.88;5019005;28;20061;-75
2021/06/04 08:56:53;;;;;;;38.60;28.77;;;;;;;-145.50;100.00;65435.88;5011092;28;20057;-76
2021/06/04 08:59:42;;;;;;;38.00;27.77;;;;;;;-145.50;100.00;65435.88;5062271;28;20483;-76
2021/06/04 09:02:38;;;;;;;41.30;28.55;;;;;;;-145.50;100.00;65435.88;5051093;28;20047;-75
2021/06/04 09:05:45;;;;;;;38.67;27.55;;;;;;;-145.50;100.00;65435.88;5063224;28;20041;-76
2021/06/04 09:08:37;;;;;;;38.83;29.83;;;;;;;-145.50;100.00;65435.88;5057428;28;20082;-76
2021/06/04 09:11:37;;;;;;;43.90;29.85;;;;;;;-145.50;100.00;65435.88;5064347;28;20315;-76
2021/06/04 09:14:26;;;;;;;40.88;28.30;;;;;;;-145.50;100.00;65435.88;5049063;28;20099;-76
2021/06/04 09:17:22;;;;;;;43.92;27.65;;;;;;;-145.50;100.00;65435.88;5055519;28;20053;-76
2021/06/04 09:20:31;;;;;;;39.40;25.73;;;;;;;-145.50;100.00;65435.88;5049990;28;20488;-77
2021/06/04 09:23:28;;;;;;;32.53;25.73;;;;;;;-145.50;100.00;65435.88;5070359;28;20052;-76
2021/06/04 09:26:18;;;;;;;38.90;28.90;;;;;;;-145.50;100.00;65435.88;5054465;28;20065;-76
2021/06/04 09:29:06;;;;;;;36.72;26.88;;;;;;;-145.50;100.00;65435.88;5057891;28;20065;-76
2021/06/04 09:31:55;;;;;;;33.72;24.63;;;;;;;-145.50;100.00;65435.88;5051978;28;20508;-77
2021/06/04 09:34:42;;;;;;;32.67;23.80;;;;;;;-145.50;100.00;65435.88;5032244;28;20478;-76
2021/06/04 09:37:42;;;;;;;31.00;22.10;;;;;;;-145.50;100.00;65435.88;5056760;28;20052;-76
2021/06/04 09:40:47;;;;;;;30.85;22.70;;;;;;;-145.50;100.00;65435.88;5050898;28;20052;-76
2021/06/04 09:43:43;;;;;;;28.75;20.33;;;;;;;-145.50;100.00;65435.88;5053860;28;20198;-76
2021/06/04 09:46:49;;;;;;;30.15;22.52;;;;;;;-145.50;100.00;65435.88;5052331;28;20350;-76
2021/06/04 09:49:48;;;;;;;28.55;20.65;;;;;;;-145.50;100.00;65435.88;5059182;28;20076;-77
2021/06/04 09:52:44;;;;;;;25.63;19.85;;;;;;;-145.50;100.00;65435.88;5050468;28;20113;-76
2021/06/04 09:55:33;;;;;;;29.13;21.20;;;;;;;-145.50;100.00;65435.88;5063462;28;20059;-76
2021/06/04 09:58:29;;;;;;;25.70;19.33;;;;;;;-145.50;100.00;65435.88;5050393;28;20057;-77
2021/06/04 10:01:17;;;;;;;32.50;23.00;;;;;;;-145.50;100.00;65435.88;5056507;28;20385;-77
2021/06/04 10:04:05;;;;;;;33.80;25.15;;;;;;;-145.50;100.00;65435.88;5049877;28;20052;-76
2021/06/04 10:07:05;;;;;;;29.42;23.27;;;;;;;-145.50;100.00;65435.88;5057586;28;20049;-76
2021/06/04 10:10:08;;;;;;;34.25;25.08;;;;;;;-145.50;100.00;65435.88;5048522;28;20338;-75
2021/06/04 10:13:00;;;;;;;35.47;25.58;;;;;;;-145.50;100.00;65435.88;5054976;28;20052;-76
2021/06/04 10:16:20;;;;;;;29.15;24.60;;;;;;;-145.50;100.00;65435.88;5061738;28;20088;-76
2021/06/04 10:19:40;;;;;;;32.42;24.77;;;;;;;-145.50;100.00;65435.88;5053990;28;20166;-76
2021/06/04 10:22:48;;;;;;;31.10;24.73;;;;;;;-145.50;100.00;65435.88;5025198;28;20074;-75
2021/06/04 10:25:43;;;;;;;28.08;21.92;;;;;;;-145.50;100.00;65435.88;5046530;28;20047;-76
2021/06/04 10:28:51;;;;;;;25.15;21.02;;;;;;;-145.50;100.00;65435.88;5058793;28;20055;-76
2021/06/04 10:31:54;;;;;;;29.83;22.67;;;;;;;-145.50;100.00;65435.88;5054873;28;20048;-75
2021/06/04 10:35:11;;;;;;;33.80;23.98;;;;;;;-145.50;100.00;65435.88;5061080;28;20044;-76
2021/06/04 10:38:13;;;;;;;32.47;24.10;;;;;;;-145.50;100.00;65435.88;5053600;28;20059;-76
2021/06/04 10:41:16;;;;;;;28.60;21.50;;;;;;;-145.50;100.00;65435.88;5043887;28;20396;-76
2021/06/04 10:44:09;;;;;;;31.33;23.17;;;;;;;-145.50;100.00;65435.88;5060200;28;20052;-75
2021/06/04 10:47:33;;;;;;;29.30;23.38;;;;;;;-145.50;100.00;65435.88;5054455;28;20078;-75
2021/06/04 10:51:16;;;;;;;28.63;22.27;;;;;;;-145.50;100.00;65435.88;5059732;28;20081;-77
2021/06/04 10:54:17;;;;;;;26.63;19.55;;;;;;;-145.50;100.00;65435.88;5004100;28;20050;-76
2021/06/04 10:57:29;;;;;;;31.23;21.35;;;;;;;-145.50;100.00;65435.88;5013391;28;20156;-76
2021/06/04 11:00:24;;;;;;;24.33;19.88;;;;;;;-145.50;100.00;65435.88;5051395;28;20048;-76
2021/06/04 11:03:21;;;;;;;21.05;17.92;;;;;;;-145.50;100.00;65435.88;5051627;28;20060;-76
2021/06/04 11:05:53;;;;;;;18.83;15.10;;;;;;;-145.50;100.00;65435.88;5070025;28;20045;-77
2021/06/04 11:08:38;;;;;;;22.75;17.00;;;;;;;-145.50;100.00;65435.88;5044805;28;20147;-76
2021/06/04 11:11:38;;;;;;;25.88;19.33;;;;;;;-145.50;100.00;65435.88;5055892;28;20158;-76
2021/06/04 11:14:33;;;;;;;20.65;16.33;;;;;;;-145.50;100.00;65435.88;5042244;28;20049;-76
2021/06/04 11:17:27;;;;;;;23.00;16.25;;;;;;;-145.50;100.00;65435.88;5060869;28;20052;-77
2021/06/04 11:20:14;;;;;;;22.83;17.08;;;;;;;-145.50;100.00;65435.88;5049855;28;20056;-76
2021/06/04 11:22:57;;;;;;;20.45;17.25;;;;;;;-145.50;100.00;65435.88;5053372;28;20721;-77
2021/06/04 11:25:32;;;;;;;23.55;18.02;;;;;;;-145.50;100.00;65435.88;5052977;28;20048;-76
2021/06/04 11:28:06;;;;;;;21.75;16.75;;;;;;;-145.50;100.00;65435.88;5059243;28;20188;-78
2021/06/04 11:30:35;;;;;;;26.98;18.45;;;;;;;-145.50;100.00;65435.88;5058054;28;20121;-76
2021/06/04 11:33:17;;;;;;;20.58;16.25;;;;;;;-145.50;100.00;65435.88;5044350;28;20048;-77
2021/06/04 11:35:49;;;;;;;22.02;14.63;;;;;;;-145.50;100.00;65435.88;5059298;28;20405;-76
2021/06/04 11:38:37;;;;;;;17.45;13.88;;;;;;;-145.50;100.00;65435.88;5055151;28;20080;-76
2021/06/04 11:41:42;;;;;;;19.83;15.90;;;;;;;-145.50;100.00;65435.88;5064263;28;20060;-76
2021/06/04 11:44:30;;;;;;;20.15;16.63;;;;;;;-145.50;100.00;65435.88;5052883;28;20488;-76
2021/06/04 11:47:12;;;;;;;25.20;17.00;;;;;;;-145.50;100.00;65435.88;5056352;28;20449;-77
2021/06/04 11:49:57;;;;;;;19.17;15.07;;;;;;;-145.50;100.00;65435.88;5052877;28;20055;-75
2021/06/04 11:52:45;;;;;;;21.20;15.30;;;;;;;-145.50;100.00;65435.88;5061333;28;20519;-77
2021/06/04 11:55:27;;;;;;;24.23;16.48;;;;;;;-145.50;100.00;65435.88;5053092;28;20113;-78
2021/06/04 11:58:18;;;;;;;20.30;17.05;;;;;;;-145.50;100.00;65435.88;5065356;28;20053;-76
2021/06/04 12:00:52;;;;;;;21.88;15.52;;;;;;;-145.50;100.00;65435.88;5043064;28;20052;-76
2021/06/04 12:03:23;;;;;;;17.15;15.27;;;;;;;-145.50;100.00;65435.88;5044580;28;20598;-77
2021/06/04 12:06:24;;;;;;;24.52;17.30;;;;;;;-145.50;100.00;65435.88;5054817;28;20121;-77
2021/06/04 12:08:52;;;;;;;20.67;13.70;;;;;;;-145.50;100.00;65435.88;5061763;28;20513;-77
2021/06/04 12:11:19;;;;;;;19.08;14.68;;;;;;;-145.50;100.00;65435.88;5052085;28;20516;-76
2021/06/04 12:13:49;;;;;;;19.73;16.30;;;;;;;-145.50;100.00;65435.88;5055921;28;20472;-77
2021/06/04 12:16:22;;;;;;;18.20;13.57;;;;;;;-145.50;100.00;65435.88;5038360;28;20412;-76
2021/06/04 12:18:59;;;;;;;15.98;13.80;;;;;;;-145.50;100.00;65435.88;5062204;28;20094;-77
2021/06/04 12:21:39;;;;;;;19.92;14.82;;;;;;;-145.50;100.00;65435.88;5065843;28;20063;-76
2021/06/04 12:24:08;;;;;;;18.83;13.20;;;;;;;-145.50;100.00;65435.88;5053744;28;20060;-76
2021/06/04 12:26:37;;;;;;;16.63;12.25;;;;;;;-145.50;100.00;65435.88;5057356;28;20051;-76
2021/06/04 12:29:33;;;;;;;14.18;10.98;;;;;;;-145.50;100.00;65435.88;5054624;28;20056;-76